Rumford, Rhode Island
Current Conditions -  °F | °C
As of 10:55 AM on Sunday 21 Dec 2014 (Local Time) from KSFZ Reporting Station
Overcast Overcast  
Wind Chill: 22°   Ceiling: 800
Heat Index: 30°   Visibility: 2.5mi
Dew Point: 23°   Wind: 9mph
Humidity: 75%   Direction: 20°NNE
Pressure: 30.28"   Gusts: NA
Location:  41.85°N, 71.35°W
Report Text: KSFZ 211555Z 02008KT 2 1/2SM OVC008 M01/M05 A3028 RMK AO1
Loading
Personal Weather Stations






























Interactive Weather Map New forecast layout! Learn more

10-Day Weather Forecast

Advertisements
Track Severe Weather on mobile